Time;durP1;ratioP1;P1;durP2;ratioP2;P2;SDS_P1;SDS_P2;PMS_P1;PMS_P2;Temp;Humidity;BMP_temperature;BMP_pressure;BME280_temperature;BME280_humidity;BME280_pressure;Samples;Min_cycle;Max_cycle;Signal;HPM_P1;HPM_P2
2022/09/25 00:00:21;;;;;;;32.03;28.83;;;13.60;85.90;;;12.07;100.00;95628.03;4969929;28;20046;-69
2022/09/25 00:02:47;;;;;;;31.77;28.77;;;13.60;85.90;;;12.08;100.00;95637.56;4958976;28;20066;-68
2022/09/25 00:05:12;;;;;;;30.77;27.98;;;13.60;86.00;;;12.09;100.00;95629.44;4963766;28;20035;-68
2022/09/25 00:07:38;;;;;;;30.38;27.55;;;13.60;86.00;;;12.09;100.00;95634.72;4987815;28;20391;-69
2022/09/25 00:10:04;;;;;;;29.17;26.52;;;13.60;85.90;;;12.10;100.00;95638.97;4969052;28;20573;-68
2022/09/25 00:12:30;;;;;;;28.17;25.50;;;13.60;85.80;;;12.11;100.00;95639.75;4965514;28;20051;-68
2022/09/25 00:14:56;;;;;;;28.25;25.65;;;13.60;85.70;;;12.13;100.00;95635.91;4960590;28;20059;-68
2022/09/25 00:17:22;;;;;;;27.00;24.50;;;13.60;85.70;;;12.15;100.00;95628.59;4958386;28;20043;-68
2022/09/25 00:19:51;;;;;;;28.05;25.08;;;13.70;85.70;;;12.17;100.00;95626.53;4962363;28;20031;-68
2022/09/25 00:22:22;;;;;;;40.95;34.55;;;13.70;85.90;;;12.21;100.00;95633.00;5009436;28;20617;-68
2022/09/25 00:24:48;;;;;;;37.75;33.70;;;13.70;86.50;;;12.20;100.00;95620.84;4969499;28;20039;-68
2022/09/25 00:27:14;;;;;;;36.92;32.97;;;13.80;86.60;;;12.24;100.00;95624.72;4966669;28;20104;-68
2022/09/25 00:29:40;;;;;;;42.63;36.70;;;13.80;86.70;;;12.27;100.00;95611.09;5005106;28;20695;-68
2022/09/25 00:32:07;;;;;;;41.47;36.10;;;13.80;86.80;;;12.30;100.00;95609.06;5017616;28;20062;-68
2022/09/25 00:34:33;;;;;;;47.47;39.45;;;13.80;86.80;;;12.32;100.00;95612.28;4977950;28;20027;-68
2022/09/25 00:36:59;;;;;;;45.15;36.72;;;13.80;87.20;;;12.34;100.00;95615.53;4951897;28;20065;-68
2022/09/25 00:39:24;;;;;;;43.42;36.75;;;13.90;87.00;;;12.38;100.00;95614.06;5013921;28;20569;-68
2022/09/25 00:41:51;;;;;;;48.25;39.08;;;14.00;86.90;;;12.37;100.00;95602.72;5016811;28;20443;-68
2022/09/25 00:44:57;;;;;;;46.45;38.13;;;13.90;86.90;;;12.44;100.00;95605.31;5026351;28;20050;-68
2022/09/25 00:47:41;;;;;;;48.80;37.50;;;14.00;87.00;;;12.43;100.00;95603.69;4975035;28;20074;-69
2022/09/25 00:50:50;;;;;;;64.75;42.25;;;14.00;86.90;;;12.44;100.00;95606.09;4966214;28;20046;-68
2022/09/25 00:53:37;;;;;;;56.72;41.63;;;14.00;87.10;;;12.44;100.00;95597.38;4951564;28;20045;-68
2022/09/25 00:56:03;;;;;;;56.63;41.08;;;14.10;87.00;;;12.44;100.00;95595.56;4966390;28;20043;-68
2022/09/25 00:58:28;;;;;;;50.13;40.53;;;14.10;87.00;;;12.45;100.00;95596.41;5015273;28;20031;-68
2022/09/25 01:00:54;;;;;;;47.85;40.25;;;14.00;87.10;;;12.47;100.00;95595.16;4929926;28;20039;-68
2022/09/25 01:03:20;;;;;;;46.58;40.63;;;14.10;87.00;;;12.44;100.00;95595.56;4962860;28;20034;-68
2022/09/25 01:05:46;;;;;;;56.15;40.63;;;14.10;87.00;;;12.45;100.00;95597.19;4961323;28;20405;-68
2022/09/25 01:08:19;;;;;;;101.00;39.60;;;14.00;86.90;;;12.47;100.00;95602.25;5014526;28;20047;-67
2022/09/25 01:10:44;;;;;;;52.03;40.10;;;14.00;86.80;;;12.43;100.00;95601.84;4969392;28;20090;-68
2022/09/25 01:13:10;;;;;;;118.47;41.22;;;14.00;87.00;;;12.41;100.00;95597.81;4962171;28;20039;-67
2022/09/25 01:16:08;;;;;;;174.30;38.75;;;13.90;86.70;;;12.41;100.00;95597.81;4950808;28;20588;-68
2022/09/25 01:18:57;;;;;;;58.83;40.78;;;13.90;86.70;;;12.37;100.00;95596.63;4963466;28;20035;-68
2022/09/25 01:21:48;;;;;;;56.47;41.92;;;13.90;87.00;;;12.35;100.00;95596.03;4964500;28;20046;-68
2022/09/25 01:24:31;;;;;;;55.88;40.75;;;13.80;87.10;;;12.34;100.00;95594.41;4985568;28;20031;-67
2022/09/25 01:27:22;;;;;;;128.95;39.72;;;13.80;87.20;;;12.33;100.00;95587.53;4967172;28;20031;-68
2022/09/25 01:30:00;;;;;;;101.95;44.50;;;13.80;86.80;;;12.27;100.00;95590.00;5049441;28;20039;-67
2022/09/25 01:32:37;;;;;;;50.83;42.20;;;13.80;87.10;;;12.25;100.00;95586.78;4981383;28;20035;-68
2022/09/25 01:35:31;;;;;;;51.22;41.03;;;13.80;87.20;;;12.26;100.00;95588.38;4963292;28;20565;-68
2022/09/25 01:38:15;;;;;;;49.10;40.30;;;13.80;87.10;;;12.25;100.00;95581.50;4960327;28;20035;-67
2022/09/25 01:41:14;;;;;;;64.28;42.50;;;13.80;87.10;;;12.25;100.00;95586.78;5021481;28;20045;-67
2022/09/25 01:43:59;;;;;;;55.83;39.85;;;13.80;87.20;;;12.23;100.00;95585.38;4942967;28;20031;-68
2022/09/25 01:46:29;;;;;;;47.03;38.10;;;13.80;87.20;;;12.21;100.00;95580.28;4952266;28;20414;-68
2022/09/25 01:49:04;;;;;;;46.95;36.28;;;13.70;87.20;;;12.22;100.00;95581.91;4986488;28;20045;-67
2022/09/25 01:51:42;;;;;;;79.93;36.92;;;13.80;87.20;;;12.23;100.00;95578.25;4942476;28;20410;-67
2022/09/25 01:54:11;;;;;;;53.17;37.80;;;13.80;87.00;;;12.21;100.00;95572.38;4952891;28;20059;-67
2022/09/25 01:57:16;;;;;;;65.15;35.28;;;13.70;87.00;;;12.19;100.00;95579.69;4949751;28;20043;-67
2022/09/25 01:59:56;;;;;;;57.25;34.30;;;13.70;87.00;;;12.19;100.00;95571.78;4997738;28;20371;-67
2022/09/25 02:02:28;;;;;;;65.95;35.20;;;13.70;87.00;;;12.17;100.00;95579.09;4949118;28;20049;-68
2022/09/25 02:05:07;;;;;;;66.30;34.25;;;13.70;86.90;;;12.18;100.00;95580.69;4947110;28;20047;-68
2022/09/25 02:07:36;;;;;;;89.50;34.35;;;13.70;86.90;;;12.17;100.00;95578.28;4949057;28;20077;-67
2022/09/25 02:10:07;;;;;;;42.88;36.95;;;13.70;86.90;;;12.16;100.00;95576.66;4963138;28;20038;-67
2022/09/25 02:12:39;;;;;;;45.97;36.75;;;13.70;87.10;;;12.15;100.00;95575.06;5025688;28;20031;-68
2022/09/25 02:15:13;;;;;;;57.65;37.72;;;13.70;87.10;;;12.15;100.00;95572.41;4943166;28;20027;-68
2022/09/25 02:20:57;;;;;;;49.47;36.60;;;13.70;87.10;;;12.12;100.00;95576.28;4945788;28;20049;-68
2022/09/25 02:23:43;;;;;;;42.80;35.10;;;13.60;87.10;;;12.08;100.00;95577.72;4931012;28;20046;-67
2022/09/25 02:26:13;;;;;;;53.70;33.78;;;13.60;86.90;;;12.07;100.00;95578.75;4947995;28;20039;-67
2022/09/25 02:28:39;;;;;;;37.50;33.30;;;13.60;87.00;;;12.04;100.00;95581.81;4946527;28;20172;-67
2022/09/25 02:31:07;;;;;;;55.22;35.83;;;13.60;87.00;;;12.06;100.00;95586.88;4959415;28;20522;-68
2022/09/25 02:33:32;;;;;;;38.72;34.30;;;13.70;87.10;;;12.06;100.00;95586.88;4938111;28;20099;-67
2022/09/25 02:35:59;;;;;;;39.22;32.97;;;13.60;87.20;;;12.05;100.00;95596.59;4946643;28;20027;-67
2022/09/25 02:38:24;;;;;;;56.97;36.17;;;13.60;87.20;;;12.07;100.00;95594.56;4967710;28;20035;-68
2022/09/25 02:41:01;;;;;;;82.05;36.03;;;13.60;87.20;;;12.08;100.00;95600.66;5047917;28;20127;-67
2022/09/25 02:44:04;;;;;;;120.95;38.70;;;13.60;87.10;;;12.01;100.00;95600.69;4988172;28;20880;-68
2022/09/25 02:46:52;;;;;;;82.05;37.03;;;13.40;87.60;;;11.97;100.00;95599.47;4951943;28;20151;-68
2022/09/25 02:49:30;;;;;;;55.63;40.30;;;13.40;87.70;;;11.92;100.00;95592.19;4982197;28;20112;-68
2022/09/25 02:52:26;;;;;;;94.55;40.35;;;13.40;87.80;;;11.93;100.00;95587.72;4945345;28;20042;-67
2022/09/25 02:55:30;;;;;;;57.22;35.63;;;13.50;87.70;;;11.90;100.00;95578.41;4948157;28;20040;-68
2022/09/25 02:58:06;;;;;;;46.30;36.92;;;13.50;87.70;;;11.87;100.00;95578.84;4955006;28;20042;-68
2022/09/25 03:00:36;;;;;;;72.85;37.90;;;13.40;87.80;;;11.84;100.00;95566.09;4931729;28;20041;-68
2022/09/25 03:03:02;;;;;;;72.90;38.28;;;13.40;87.80;;;11.84;100.00;95573.19;4926553;28;20053;-68
2022/09/25 03:05:28;;;;;;;67.72;37.30;;;13.40;87.80;;;11.87;100.00;95570.13;4943595;28;20034;-68
2022/09/25 03:10:38;;;;;;;41.25;35.08;;;13.50;87.70;;;11.90;100.00;95581.06;5030344;28;20069;-69
2022/09/25 03:13:30;;;;;;;53.17;36.60;;;13.50;87.70;;;11.92;100.00;95572.94;4956929;28;20499;-68
2022/09/25 03:16:03;;;;;;;42.45;34.10;;;13.50;87.60;;;11.88;100.00;95559.38;4966640;28;20038;-68
2022/09/25 03:18:30;;;;;;;48.53;32.45;;;13.40;87.70;;;11.88;100.00;95553.28;4959849;28;20078;-68
2022/09/25 03:20:56;;;;;;;43.92;32.60;;;13.40;87.50;;;11.89;100.00;95549.63;4950720;28;20044;-68
2022/09/25 03:23:22;;;;;;;41.75;31.55;;;13.50;87.40;;;11.90;100.00;95556.53;4956739;28;20109;-68
2022/09/25 03:25:48;;;;;;;33.75;30.15;;;13.50;87.30;;;11.89;100.00;95549.63;4946908;28;20035;-68
2022/09/25 03:28:14;;;;;;;36.70;28.75;;;13.50;87.40;;;11.90;100.00;95548.63;4937507;28;20031;-68
2022/09/25 03:30:39;;;;;;;33.25;29.08;;;13.50;87.20;;;11.90;100.00;95556.53;4955563;28;20050;-68
2022/09/25 03:33:10;;;;;;;31.85;28.55;;;13.50;87.00;;;11.92;100.00;95554.47;4958496;28;20121;-68
2022/09/25 03:35:37;;;;;;;36.45;29.70;;;13.50;87.00;;;11.91;100.00;95552.88;4935382;28;20038;-68
2022/09/25 03:38:03;;;;;;;41.03;29.25;;;13.50;87.00;;;11.91;100.00;95545.78;4956932;28;20232;-68
2022/09/25 03:40:29;;;;;;;40.05;30.75;;;13.50;87.10;;;11.90;100.00;95541.53;4960832;28;21340;-68
2022/09/25 03:42:54;;;;;;;41.85;31.35;;;13.40;87.00;;;11.88;100.00;95537.47;4957477;28;20043;-68
2022/09/25 03:45:20;;;;;;;56.58;32.65;;;13.50;87.00;;;11.88;100.00;95538.28;4952286;28;20035;-68
2022/09/25 03:47:46;;;;;;;37.10;30.85;;;13.40;87.00;;;11.85;100.00;95541.34;4985378;28;20039;-68
2022/09/25 03:50:11;;;;;;;35.90;31.10;;;13.40;87.00;;;11.86;100.00;95548.22;4954116;28;20050;-68
2022/09/25 03:52:38;;;;;;;37.03;31.10;;;13.50;87.20;;;11.87;100.00;95535.88;4959293;28;20059;-68
2022/09/25 03:55:04;;;;;;;35.65;31.75;;;13.50;87.20;;;11.89;100.00;95539.09;4939728;28;20046;-68
2022/09/25 03:57:30;;;;;;;46.17;29.65;;;13.50;87.10;;;11.88;100.00;95543.56;5025751;28;20043;-68
2022/09/25 04:00:00;;;;;;;46.08;28.83;;;13.40;86.90;;;11.88;100.00;95542.75;4964113;28;20039;-68
2022/09/25 04:02:27;;;;;;;31.02;27.60;;;13.40;87.00;;;11.87;100.00;95544.56;4971361;28;20039;-68
2022/09/25 04:04:53;;;;;;;28.98;25.92;;;13.50;87.00;;;11.87;100.00;95538.50;4956343;28;20230;-68
2022/09/25 04:07:20;;;;;;;27.85;24.85;;;13.40;87.00;;;11.86;100.00;95539.53;4956352;28;20188;-67
2022/09/25 04:09:46;;;;;;;30.45;26.48;;;13.40;86.90;;;11.87;100.00;95538.50;4930124;28;20507;-68
2022/09/25 04:12:12;;;;;;;28.45;25.00;;;13.40;87.00;;;11.85;100.00;95533.44;4959282;28;20062;-68
2022/09/25 04:14:38;;;;;;;29.00;26.10;;;13.50;86.90;;;11.87;100.00;95535.88;4959501;28;20122;-68
2022/09/25 04:17:03;;;;;;;33.17;27.90;;;13.50;87.00;;;11.89;100.00;95533.81;4971696;28;20048;-68
2022/09/25 04:19:29;;;;;;;31.33;27.45;;;13.50;86.90;;;11.89;100.00;95533.81;4962334;28;20043;-68
2022/09/25 04:21:55;;;;;;;33.97;27.58;;;13.50;86.90;;;11.87;100.00;95525.31;4959485;28;20078;-68
2022/09/25 04:27:06;;;;;;;56.35;29.73;;;13.50;86.80;;;11.89;100.00;95525.91;4962135;28;20120;-68
2022/09/25 04:29:33;;;;;;;33.00;27.35;;;13.50;86.80;;;11.89;100.00;95529.38;5026590;28;20058;-68
2022/09/25 04:34:43;;;;;;;34.40;30.08;;;13.40;86.80;;;11.88;100.00;95529.56;4951368;28;20092;-68
2022/09/25 04:37:10;;;;;;;33.38;29.38;;;13.40;86.60;;;11.87;100.00;95527.97;4966475;28;20053;-68
2022/09/25 04:39:36;;;;;;;34.97;29.55;;;13.50;86.70;;;11.86;100.00;95532.41;4956684;28;20031;-68
2022/09/25 04:42:02;;;;;;;65.13;30.50;;;13.40;86.70;;;11.86;100.00;95539.53;4952010;28;20034;-68
2022/09/25 04:44:28;;;;;;;32.40;27.55;;;13.40;86.50;;;11.83;100.00;95537.31;4959512;28;20739;-68
2022/09/25 04:46:54;;;;;;;36.90;28.52;;;13.40;86.90;;;11.83;100.00;95543.38;4966982;28;20031;-68
2022/09/25 04:49:20;;;;;;;61.28;28.63;;;13.40;87.00;;;11.83;100.00;95539.94;4967921;28;20081;-68
2022/09/25 04:51:45;;;;;;;42.05;27.65;;;13.40;86.90;;;11.81;100.00;95536.72;4957750;28;20143;-68
2022/09/25 04:54:13;;;;;;;52.70;26.60;;;13.40;87.20;;;11.79;100.00;95534.28;5036927;28;20048;-68
2022/09/25 04:56:39;;;;;;;27.38;24.45;;;13.30;87.20;;;11.79;100.00;95539.56;4965764;28;20121;-69
2022/09/25 04:59:05;;;;;;;30.00;25.13;;;13.40;87.40;;;11.80;100.00;95535.09;5038259;28;20081;-68
2022/09/25 05:01:30;;;;;;;31.83;24.15;;;13.40;87.30;;;11.81;100.00;95536.72;4954951;28;20129;-68
2022/09/25 05:03:56;;;;;;;43.58;26.10;;;13.40;87.20;;;11.79;100.00;95530.84;4956692;28;20035;-68
2022/09/25 05:06:22;;;;;;;54.80;25.80;;;13.40;87.10;;;11.78;100.00;95537.94;4955348;28;20042;-68
2022/09/25 05:08:51;;;;;;;59.85;28.15;;;13.30;87.00;;;11.74;100.00;95541.16;4935774;28;20521;-67
2022/09/25 05:11:17;;;;;;;94.25;28.75;;;13.20;87.40;;;11.72;100.00;95549.28;4976918;28;20067;-68
2022/09/25 05:13:45;;;;;;;69.72;26.80;;;13.10;87.10;;;11.67;100.00;95541.19;4947372;28;20055;-68
2022/09/25 05:16:11;;;;;;;41.20;28.23;;;13.10;87.30;;;11.66;100.00;95540.38;4971741;28;20037;-68
2022/09/25 05:18:37;;;;;;;58.17;26.65;;;13.20;87.50;;;11.66;100.00;95537.75;4961004;28;20038;-69
2022/09/25 05:21:05;;;;;;;66.72;26.02;;;13.20;87.30;;;11.66;100.00;95540.38;4955796;28;20039;-69
2022/09/25 05:23:31;;;;;;;57.35;26.00;;;13.20;87.20;;;11.63;100.00;95537.38;4958587;28;20449;-69
2022/09/25 05:26:00;;;;;;;83.30;26.67;;;13.10;87.30;;;11.60;100.00;95530.69;4941675;28;20038;-68
2022/09/25 05:28:30;;;;;;;33.97;27.52;;;13.10;87.10;;;11.56;100.00;95529.50;4951825;28;20170;-68
2022/09/25 05:31:01;;;;;;;32.58;25.10;;;13.10;87.30;;;11.58;100.00;95535.38;4942202;28;20039;-68
2022/09/25 05:33:27;;;;;;;28.55;25.48;;;13.10;87.30;;;11.58;100.00;95537.19;5006535;28;20054;-69
2022/09/25 05:35:52;;;;;;;27.45;22.75;;;13.20;87.20;;;11.58;100.00;95543.25;4975690;28;20039;-69
2022/09/25 05:38:18;;;;;;;31.90;23.27;;;13.10;87.00;;;11.57;100.00;95540.84;4945851;28;20213;-68
2022/09/25 05:40:44;;;;;;;37.13;31.52;;;13.10;87.10;;;11.55;100.00;95540.25;4957737;28;20089;-69
2022/09/25 05:43:11;;;;;;;54.38;44.53;;;13.10;87.30;;;11.57;100.00;95546.91;4962509;28;20092;-68
2022/09/25 05:45:37;;;;;;;49.08;37.70;;;13.20;87.20;;;11.61;100.00;95548.09;4962641;28;20046;-69
2022/09/25 05:48:06;;;;;;;31.50;25.05;;;13.20;86.90;;;11.64;100.00;95554.78;4947928;28;20069;-69
2022/09/25 05:50:32;;;;;;;28.25;23.52;;;13.30;86.90;;;11.65;100.00;95565.13;5040901;28;20027;-68
2022/09/25 05:53:00;;;;;;;41.65;23.67;;;13.30;86.90;;;11.67;100.00;95562.28;4947543;28;20114;-68
2022/09/25 05:55:26;;;;;;;25.35;22.05;;;13.30;86.90;;;11.65;100.00;95554.56;4964683;28;20039;-68
2022/09/25 05:57:52;;;;;;;25.65;22.90;;;13.40;86.90;;;11.70;100.00;95561.84;4943026;28;20050;-68
2022/09/25 06:00:17;;;;;;;23.65;21.38;;;13.40;86.80;;;11.72;100.00;95548.47;4962237;28;20054;-68
2022/09/25 06:02:43;;;;;;;38.47;31.05;;;13.40;86.70;;;11.77;100.00;95551.28;4957178;28;20594;-68
2022/09/25 06:05:09;;;;;;;30.33;23.33;;;13.50;86.80;;;11.80;100.00;95553.53;4962844;28;20529;-68
2022/09/25 06:07:35;;;;;;;41.00;36.85;;;13.50;86.70;;;11.83;100.00;95561.84;4969178;28;20050;-68
2022/09/25 06:10:01;;;;;;;27.45;24.52;;;13.60;86.90;;;11.87;100.00;95554.31;4973031;28;20047;-68
2022/09/25 06:12:30;;;;;;;42.72;31.13;;;13.60;86.60;;;11.89;100.00;95561.00;4947200;28;20038;-68
2022/09/25 06:14:57;;;;;;;40.83;36.42;;;13.60;86.40;;;11.91;100.00;95558.94;4957425;28;20027;-68
2022/09/25 06:17:22;;;;;;;43.75;38.65;;;13.60;86.60;;;11.94;100.00;95557.72;5007235;28;20443;-68
2022/09/25 06:19:48;;;;;;;41.10;36.70;;;13.60;86.50;;;11.96;100.00;95555.69;4967413;28;20027;-69
2022/09/25 06:22:14;;;;;;;41.42;32.58;;;13.70;86.10;;;11.98;100.00;95553.63;5035329;28;20373;-68
2022/09/25 06:24:40;;;;;;;27.17;24.38;;;13.60;86.10;;;12.00;100.00;95556.09;4961613;28;20035;-68
2022/09/25 06:27:06;;;;;;;25.02;21.92;;;13.70;86.00;;;12.03;100.00;95548.56;4963744;28;20053;-69
2022/09/25 06:29:32;;;;;;;26.90;24.17;;;13.70;85.80;;;12.03;100.00;95551.19;4980343;28;20049;-68
2022/09/25 06:31:57;;;;;;;25.45;22.90;;;13.70;85.50;;;12.02;100.00;95552.22;4952145;28;20111;-68
2022/09/25 06:34:23;;;;;;;51.20;45.88;;;13.60;85.30;;;12.02;100.00;95554.06;4956433;28;20039;-69
2022/09/25 06:36:49;;;;;;;53.03;47.30;;;13.70;85.40;;;12.05;100.00;95549.16;4957331;28;20126;-68
2022/09/25 06:39:14;;;;;;;39.92;35.70;;;13.70;85.60;;;12.07;100.00;95546.31;4947723;28;20035;-68
2022/09/25 06:41:41;;;;;;;32.50;28.23;;;13.80;85.70;;;12.12;100.00;95549.91;4958148;28;20135;-69
2022/09/25 06:44:08;;;;;;;28.20;23.08;;;13.80;85.70;;;12.14;100.00;95547.88;4952288;28;20031;-68
2022/09/25 06:46:35;;;;;;;43.20;34.58;;;13.90;85.40;;;12.18;100.00;95550.88;4959259;28;20026;-66
2022/09/25 06:49:00;;;;;;;81.95;72.93;;;13.90;85.60;;;12.20;100.00;95549.66;4954746;28;20552;-70
2022/09/25 06:51:31;;;;;;;106.40;94.30;;;13.90;85.60;;;12.23;100.00;95548.44;4951965;28;20065;-69
2022/09/25 06:53:57;;;;;;;38.67;27.20;;;13.90;85.30;;;12.24;100.00;95545.59;4953425;28;20027;-69
2022/09/25 06:56:23;;;;;;;29.50;26.25;;;14.00;84.90;;;12.26;100.00;95548.84;4958850;28;20039;-68
2022/09/25 06:58:48;;;;;;;43.58;38.92;;;13.90;85.10;;;12.28;100.00;95551.25;4959089;28;20023;-68
2022/09/25 07:01:14;;;;;;;34.60;30.02;;;14.00;85.30;;;12.30;100.00;95553.69;4963027;28;20109;-69
2022/09/25 07:03:47;;;;;;;29.58;24.27;;;14.00;85.10;;;12.32;100.00;95551.63;4949993;28;20051;-69
2022/09/25 07:06:14;;;;;;;27.17;24.33;;;14.00;84.90;;;12.35;100.00;95553.84;4997934;28;20050;-68
2022/09/25 07:08:41;;;;;;;26.88;23.83;;;14.00;84.90;;;12.34;100.00;95555.66;5009244;28;20409;-69
2022/09/25 07:11:07;;;;;;;29.48;22.00;;;14.00;84.70;;;12.32;100.00;95556.91;5013816;28;20039;-68
2022/09/25 07:13:34;;;;;;;27.25;22.88;;;13.90;84.40;;;12.30;100.00;95553.69;4985779;28;20536;-69
2022/09/25 07:16:05;;;;;;;29.85;23.02;;;14.00;84.40;;;12.30;100.00;95562.41;5016274;28;20050;-68
2022/09/25 07:18:30;;;;;;;26.75;23.85;;;14.00;84.50;;;12.29;100.00;95559.97;4951975;28;20034;-68
2022/09/25 07:21:11;;;;;;;26.48;21.70;;;13.90;84.80;;;12.28;100.00;95564.44;5052173;28;20169;-68
2022/09/25 07:23:37;;;;;;;24.45;21.38;;;14.00;84.80;;;12.23;100.00;95570.34;4977587;28;20050;-68
2022/09/25 07:26:21;;;;;;;30.63;21.25;;;13.80;84.50;;;12.19;100.00;95566.50;5006638;28;20039;-68
2022/09/25 07:29:07;;;;;;;23.85;20.27;;;13.80;84.60;;;12.17;100.00;95571.19;4966711;28;20514;-68
2022/09/25 07:31:33;;;;;;;40.17;20.75;;;13.70;84.90;;;12.13;100.00;95572.63;5016711;28;20102;-68
2022/09/25 07:34:04;;;;;;;22.98;20.48;;;13.70;85.20;;;12.10;100.00;95567.78;5044390;28;20502;-68
2022/09/25 07:36:30;;;;;;;21.95;19.08;;;13.70;85.20;;;12.10;100.00;95567.78;5015996;28;20051;-65
2022/09/25 07:38:56;;;;;;;27.17;24.27;;;13.70;85.20;;;12.10;100.00;95573.06;4967361;28;20058;-66
2022/09/25 07:41:22;;;;;;;38.55;29.25;;;13.70;85.40;;;12.12;100.00;95565.75;4971972;28;20051;-67
2022/09/25 07:43:56;;;;;;;24.70;22.13;;;13.80;85.40;;;12.15;100.00;95565.31;4968201;28;20099;-66
2022/09/25 07:46:25;;;;;;;20.67;18.67;;;13.80;85.00;;;12.16;100.00;95566.94;4999101;28;20027;-66
2022/09/25 07:48:50;;;;;;;20.30;18.30;;;13.90;84.90;;;12.19;100.00;95566.50;5009066;28;20035;-67
2022/09/25 07:51:16;;;;;;;21.02;17.95;;;13.90;84.70;;;12.20;100.00;95568.13;4970316;28;20187;-66
2022/09/25 07:53:42;;;;;;;21.50;19.40;;;14.00;84.60;;;12.23;100.00;95567.72;4962004;28;20486;-67
2022/09/25 07:56:09;;;;;;;21.75;19.48;;;14.00;84.90;;;12.29;100.00;95565.25;4987643;28;20035;-66
2022/09/25 07:58:34;;;;;;;22.50;20.20;;;14.10;84.80;;;12.34;100.00;95574.13;5033855;28;20030;-66
2022/09/25 08:01:01;;;;;;;22.55;20.15;;;14.10;84.70;;;12.39;100.00;95568.22;4966157;28;20038;-67
2022/09/25 08:03:27;;;;;;;20.58;18.38;;;14.20;84.40;;;12.46;100.00;95561.09;4974234;28;20066;-66
2022/09/25 08:06:20;;;;;;;24.52;18.85;;;14.30;83.90;;;12.50;100.00;95557.78;4967119;28;20058;-67
2022/09/25 08:08:45;;;;;;;20.38;18.17;;;14.20;84.20;;;12.49;100.00;95565.94;4968980;28;20045;-67
2022/09/25 08:11:13;;;;;;;19.80;17.70;;;14.20;84.10;;;12.53;100.00;95573.19;4975590;28;20031;-67
2022/09/25 08:13:40;;;;;;;21.88;16.30;;;14.30;83.90;;;12.54;100.00;95572.16;5035884;28;20067;-67
2022/09/25 08:16:14;;;;;;;18.17;16.38;;;14.30;83.30;;;12.57;100.00;95568.28;5009970;28;20089;-66
2022/09/25 08:18:41;;;;;;;18.05;16.33;;;14.30;83.40;;;12.57;100.00;95578.84;4966122;28;20494;-67
2022/09/25 08:21:07;;;;;;;18.70;16.90;;;14.30;83.50;;;12.61;100.00;95569.47;4976132;28;20039;-67
2022/09/25 08:23:33;;;;;;;18.50;16.70;;;14.40;83.40;;;12.64;100.00;95573.50;5025749;28;20044;-67
2022/09/25 08:26:00;;;;;;;22.75;16.60;;;14.40;83.20;;;12.66;100.00;95567.00;5030280;28;20124;-67
2022/09/25 08:28:26;;;;;;;18.58;16.67;;;14.40;83.00;;;12.69;100.00;95565.78;4979080;28;20510;-67
2022/09/25 08:30:52;;;;;;;21.95;14.90;;;14.50;82.90;;;12.75;100.00;95571.00;4965431;28;20046;-68
2022/09/25 08:33:18;;;;;;;22.90;20.48;;;14.60;82.70;;;12.84;100.00;95572.34;4980514;28;20038;-67
2022/09/25 08:35:57;;;;;;;90.80;81.22;;;14.70;82.50;;;12.94;100.00;95568.44;4972974;28;20029;-66
2022/09/25 08:38:23;;;;;;;30.98;27.58;;;14.80;82.20;;;13.02;100.00;95562.84;5009730;28;20556;-70
2022/09/25 08:40:56;;;;;;;28.20;25.15;;;15.00;81.50;;;13.10;100.00;95563.38;4993822;28;20042;-67
2022/09/25 08:43:23;;;;;;;21.20;18.90;;;15.00;81.30;;;13.16;100.00;95567.00;4994456;28;20050;-66
2022/09/25 08:49:01;;;;;;;16.33;14.63;;;15.10;81.40;;;13.34;100.00;95566.22;4964555;28;20085;-68
2022/09/25 08:51:39;;;;;;;17.52;15.80;;;15.20;81.10;;;13.38;100.00;95564.78;4951172;28;20062;-66
2022/09/25 08:54:05;;;;;;;17.52;15.85;;;15.20;81.10;;;13.39;100.00;95567.22;4985920;28;21212;-67
2022/09/25 08:56:32;;;;;;;17.83;15.93;;;15.20;81.10;;;13.43;100.00;95562.28;5022576;28;20582;-68
2022/09/25 08:59:25;;;;;;;16.63;14.98;;;15.30;80.90;;;13.48;100.00;95560.59;4947947;28;20478;-66
2022/09/25 09:01:54;;;;;;;17.30;15.50;;;15.40;80.50;;;13.49;100.00;95556.13;5019869;28;20402;-67
2022/09/25 09:04:37;;;;;;;16.25;14.60;;;15.30;80.10;;;13.55;100.00;95559.72;5038960;28;20386;-66
2022/09/25 09:07:08;;;;;;;16.42;14.82;;;15.40;80.00;;;13.59;100.00;95555.63;4979259;28;20043;-67
2022/09/25 09:09:41;;;;;;;16.70;14.98;;;15.50;80.00;;;13.60;100.00;95557.22;5009754;28;20041;-66
2022/09/25 09:12:17;;;;;;;18.42;16.63;;;15.60;79.30;;;13.65;100.00;95560.00;4950963;28;20126;-66
2022/09/25 09:14:49;;;;;;;17.75;15.95;;;15.50;79.40;;;13.70;100.00;95546.94;4952911;28;20527;-66
2022/09/25 09:17:21;;;;;;;20.02;17.92;;;15.60;79.70;;;13.78;100.00;95550.06;4990277;28;20085;-66
2022/09/25 09:19:52;;;;;;;17.58;15.82;;;15.70;79.30;;;13.85;100.00;95544.72;4967024;28;20514;-67
2022/09/25 09:22:24;;;;;;;15.65;14.15;;;15.90;78.90;;;13.98;100.00;95544.53;4959428;28;20043;-66
2022/09/25 09:25:04;;;;;;;15.70;14.20;;;16.10;77.00;;;14.08;100.00;95547.47;4977397;28;20119;-66
2022/09/25 09:27:59;;;;;;;15.60;14.00;;;16.20;76.70;;;14.20;100.00;95546.69;5023823;28;20037;-67
2022/09/25 09:30:54;;;;;;;15.82;14.32;;;16.30;76.90;;;14.31;100.00;95544.09;5036318;28;20043;-68
2022/09/25 09:34:03;;;;;;;16.17;13.70;;;16.50;77.40;;;14.46;100.00;95549.00;4972917;28;20170;-67
2022/09/25 09:36:51;;;;;;;18.42;14.73;;;16.50;76.80;;;14.49;100.00;95561.00;5023196;28;20039;-67
2022/09/25 09:39:40;;;;;;;27.02;23.77;;;16.50;76.20;;;14.50;100.00;95550.19;5005907;28;20110;-68
2022/09/25 09:42:38;;;;;;;18.00;16.20;;;16.40;75.90;;;14.48;100.00;95549.56;4954944;28;20071;-68
2022/09/25 09:45:24;;;;;;;15.70;14.20;;;16.20;76.70;;;14.48;100.00;95543.47;4968768;28;20574;-68
2022/09/25 09:48:11;;;;;;;14.02;12.65;;;16.20;77.00;;;14.47;100.00;95550.59;4964314;28;20520;-67
2022/09/25 09:50:49;;;;;;;18.70;16.85;;;16.30;76.80;;;14.48;100.00;95538.19;4960089;28;20575;-67
2022/09/25 09:53:54;;;;;;;29.60;25.90;;;16.40;76.50;;;14.57;100.00;95536.84;5048485;28;20054;-67
2022/09/25 09:56:28;;;;;;;25.92;23.17;;;16.50;76.90;;;14.67;100.00;95540.53;5046391;28;20101;-68
2022/09/25 09:59:22;;;;;;;16.27;14.70;;;16.80;76.20;;;14.84;100.00;95524.78;4952655;28;20031;-67
2022/09/25 10:01:59;;;;;;;20.70;18.63;;;17.00;75.30;;;14.97;100.00;95526.41;5027743;28;20059;-67
2022/09/25 10:04:30;;;;;;;16.33;14.70;;;17.20;74.70;;;15.04;100.00;95529.75;5023571;28;20035;-66
2022/09/25 10:07:08;;;;;;;13.38;12.05;;;17.30;73.10;;;15.13;100.00;95522.25;5030431;28;20031;-67
2022/09/25 10:09:36;;;;;;;12.82;11.52;;;17.40;73.10;;;15.21;100.00;95520.06;4985976;28;20475;-67
2022/09/25 10:12:13;;;;;;;13.98;12.57;;;17.60;73.30;;;15.36;100.00;95521.41;4988486;28;20545;-67
2022/09/25 10:14:42;;;;;;;15.02;13.63;;;17.60;73.10;;;15.44;100.00;95526.38;5049441;28;20553;-68
2022/09/25 10:17:10;;;;;;;23.80;21.40;;;17.70;71.80;;;15.50;100.00;95531.53;4980530;28;20046;-67
2022/09/25 10:19:48;;;;;;;22.42;20.02;;;17.70;72.10;;;15.58;100.00;95533.84;5009082;28;20046;-68
2022/09/25 10:22:24;;;;;;;14.15;12.75;;;17.70;71.40;;;15.69;100.00;95532.22;5032369;28;20031;-67
2022/09/25 10:24:57;;;;;;;13.00;11.70;;;17.90;70.30;;;15.76;100.00;95530.25;4981840;28;20054;-68
2022/09/25 10:27:30;;;;;;;14.05;12.55;;;18.00;70.00;;;15.82;100.00;95542.56;4966283;28;20248;-68
2022/09/25 10:30:17;;;;;;;12.13;10.93;;;18.00;70.40;;;15.87;100.00;95531.25;4963154;28;20034;-68
2022/09/25 10:32:47;;;;;;;27.52;24.65;;;17.90;70.00;;;15.89;100.00;95529.19;4990229;28;20511;-68